This is the latest recevied weather packets stored in our database for station/object WD4IXD. If no packets are shown the sender has not sent any weather packets the latest 1 day(s).
| Time | Temp. | Humidity | Pressure | Rain* | Wind** | Luminosity | Snow |
|---|---|---|---|---|---|---|---|
| 1777986604 | 2.78° C | 93% | 1015.5 hPa | 0.51 mm | 3.13 m/s, 340° | 9 W/m² | - |
| 1777986315 | 3.33° C | 93% | 1015.4 hPa | 0.51 mm | 3.13 m/s, 339° | 9 W/m² | - |
| 1777986003 | 3.33° C | 93% | 1015.2 hPa | 0.51 mm | 2.68 m/s, 358° | 9 W/m² | - |
| 1777985715 | 3.33° C | 93% | 1015.3 hPa | 0.51 mm | 3.13 m/s, 324° | 9 W/m² | - |
| 1777985404 | 3.33° C | 93% | 1015.2 hPa | 0.76 mm | 3.58 m/s, 330° | 7 W/m² | - |
| 1777985115 | 3.33° C | 93% | 1015 hPa | 0.76 mm | 3.13 m/s, 321° | 5 W/m² | - |
| 1777984803 | 3.33° C | 93% | 1014.9 hPa | 1.02 mm | 3.13 m/s, 331° | 5 W/m² | - |
| 1777984514 | 3.33° C | 93% | 1014.8 hPa | 1.52 mm | 4.02 m/s, 348° | 7 W/m² | - |
| 1777984204 | 3.33° C | 93% | 1014.5 hPa | 1.78 mm | 4.47 m/s, 357° | 7 W/m² | - |
| 1777983915 | 3.33° C | 93% | 1014.3 hPa | 1.78 mm | 4.47 m/s, 353° | 0 W/m² | - |
| 1777983603 | 3.33° C | 93% | 1014.5 hPa | 1.78 mm | 4.47 m/s, 330° | 0 W/m² | - |
| 1777983304 | 3.89° C | 93% | 1014.6 hPa | 1.52 mm | 4.02 m/s, 316° | 0 W/m² | - |
| 1777983015 | 3.89° C | 93% | 1014.6 hPa | 1.52 mm | 4.02 m/s, 319° | 0 W/m² | - |
| 1777982715 | 3.89° C | 93% | 1014.5 hPa | 1.52 mm | 4.47 m/s, 313° | 0 W/m² | - |
| 1777982404 | 3.89° C | 93% | 1014.4 hPa | 1.27 mm | 4.47 m/s, 320° | 0 W/m² | - |
| 1777982114 | 3.89° C | 93% | 1014.4 hPa | 1.27 mm | 4.47 m/s, 318° | 0 W/m² | - |
| 1777981804 | 3.89° C | 93% | 1014.4 hPa | 1.02 mm | 4.02 m/s, 329° | 0 W/m² | - |
| 1777981515 | 3.89° C | 93% | 1014.4 hPa | 1.02 mm | 4.02 m/s, 315° | 0 W/m² | - |
| 1777981203 | 3.89° C | 93% | 1014.4 hPa | 0.76 mm | 4.47 m/s, 327° | 0 W/m² | - |
| 1777980914 | 4.44° C | 92% | 1014.3 hPa | 0.25 mm | 4.02 m/s, 330° | 0 W/m² | - |
| 1777980604 | 4.44° C | 92% | 1014.3 hPa | 0 mm | 4.02 m/s, 334° | 0 W/m² | - |
| 1777980315 | 5° C | 92% | 1014.3 hPa | 0 mm | 4.92 m/s, 330° | 0 W/m² | - |
| 1777980003 | 5° C | 93% | 1014.2 hPa | 0 mm | 4.47 m/s, 311° | 0 W/m² | - |
| 1777979715 | 5° C | 93% | 1014.2 hPa | 0 mm | 3.13 m/s, 317° | 0 W/m² | - |
| 1777979404 | 5° C | 93% | 1014.1 hPa | 0 mm | 3.13 m/s, 321° | 0 W/m² | - |
* Rain latest hour (hover to see other rain measurements)
** Current wind speed in m/s (hover to see current wind gust speed)